CheckWX is a tool to help pilots better visualize weather data.  It is not intended as a substitute for an official pre-flight weather briefing.

05:15:40 UTC

KEOK METAR
Keokuk Municipal Airport
Keokuk, Iowa, USA
Current

21 mins ago

KEOK 240455Z AUTO 21011KT 10SM FEW022 BKN050 OVC060 06/06 A2933 RMK AO2
Observed
Feb-24 @ 04:55 UTC
Wind
  • 210° at 11 KTS
Visibility
10 SM
Flight Rules
VFR
Cloud Levels
  • Few at 2,200' AGL
  • Broken at 5,000' AGL
  • Overcast at 6,000' AGL
Temperature
C / 43°F
Dewpoint
C / 43°F
Humidity
100%
Altimeter
29.33" Hg
Pressure
993.22 hPa
Previous

41 mins ago

KEOK 240435Z AUTO 20008KT 10SM OVC050 06/05 A2934 RMK AO2
Observed
Feb-24 @ 04:35 UTC
Wind
  • 200° at 8 KTS
Visibility
10 SM
Flight Rules
VFR
Cloud Levels
  • Overcast at 5,000' AGL
Temperature
C / 43°F
Dewpoint
C / 41°F
Humidity
93%
Altimeter
29.34" Hg
Pressure
993.52 hPa
Previous

1 hour ago

KEOK 240415Z AUTO 20007KT 7SM BKN055 BKN065 OVC075 05/05 A2935 RMK AO2
Observed
Feb-24 @ 04:15 UTC
Wind
  • 200° at 7 KTS
Visibility
7 SM
Flight Rules
VFR
Cloud Levels
  • Broken at 5,500' AGL
  • Broken at 6,500' AGL
  • Overcast at 7,500' AGL
Temperature
C / 41°F
Dewpoint
C / 41°F
Humidity
100%
Altimeter
29.35" Hg
Pressure
993.92 hPa